Time;durP1;ratioP1;P1;durP2;ratioP2;P2;SDS_P1;SDS_P2;PMS_P1;PMS_P2;Temp;Humidity;BMP_temperature;BMP_pressure;BME280_temperature;BME280_humidity;BME280_pressure;Samples;Min_cycle;Max_cycle;Signal;HPM_P1;HPM_P2
2021/05/05 00:00:30;;;;;;;1.17;0.93;;;7.30;99.90;;;;;;5033526;28;20172;-74
2021/05/05 00:02:56;;;;;;;0.70;0.60;;;7.40;99.90;;;;;;5033829;28;20292;-74
2021/05/05 00:05:22;;;;;;;1.33;0.70;;;7.40;99.90;;;;;;5032688;28;20423;-74
2021/05/05 00:07:48;;;;;;;1.00;0.90;;;7.40;99.90;;;;;;5033441;28;20411;-74
2021/05/05 00:10:15;;;;;;;1.13;0.90;;;7.50;99.90;;;;;;5033401;28;20250;-74
2021/05/05 00:12:41;;;;;;;1.90;0.97;;;7.50;99.90;;;;;;5033057;28;20439;-74
2021/05/05 00:15:14;;;;;;;2.33;0.97;;;7.40;99.90;;;;;;5033416;28;20403;-74
2021/05/05 00:17:39;;;;;;;1.13;0.90;;;7.40;99.90;;;;;;5033530;28;20446;-74
2021/05/05 00:20:07;;;;;;;1.20;0.80;;;7.50;99.90;;;;;;5033745;28;20455;-75
2021/05/05 00:22:33;;;;;;;2.80;1.00;;;7.50;99.90;;;;;;5033639;28;20548;-75
2021/05/05 00:24:59;;;;;;;1.60;0.97;;;7.50;99.90;;;;;;5033246;28;20411;-75
2021/05/05 00:27:24;;;;;;;1.17;0.70;;;7.40;99.90;;;;;;5031978;28;20180;-75
2021/05/05 00:29:50;;;;;;;2.87;0.90;;;7.40;99.90;;;;;;5033160;28;20208;-75
2021/05/05 00:32:16;;;;;;;0.63;0.63;;;7.50;99.90;;;;;;5033235;28;20168;-75
2021/05/05 00:34:42;;;;;;;1.23;0.60;;;7.40;99.90;;;;;;5033429;28;20678;-75
2021/05/05 00:37:08;;;;;;;1.40;0.77;;;7.40;99.90;;;;;;5033366;28;20179;-75
2021/05/05 00:39:34;;;;;;;0.87;0.87;;;7.30;99.90;;;;;;5032997;28;20795;-75
2021/05/05 00:41:59;;;;;;;2.03;1.20;;;7.30;99.90;;;;;;5048424;28;20496;-75
2021/05/05 00:44:25;;;;;;;0.80;0.80;;;7.40;99.90;;;;;;5048387;28;20585;-75
2021/05/05 00:46:51;;;;;;;2.17;1.27;;;7.30;99.90;;;;;;5033393;28;20177;-75
2021/05/05 00:49:18;;;;;;;1.23;1.00;;;7.30;99.90;;;;;;5032845;28;20220;-75
2021/05/05 00:51:44;;;;;;;1.33;0.90;;;7.20;99.90;;;;;;5048373;28;20423;-75
2021/05/05 00:54:10;;;;;;;0.90;0.90;;;7.20;99.90;;;;;;5032982;28;20424;-75
2021/05/05 00:56:36;;;;;;;0.90;0.80;;;7.20;99.90;;;;;;5032971;28;20412;-75
2021/05/05 00:59:01;;;;;;;1.20;1.07;;;7.30;99.90;;;;;;5032920;28;20568;-75
2021/05/05 01:01:27;;;;;;;4.47;1.20;;;7.20;99.90;;;;;;5033152;28;20181;-75
2021/05/05 01:03:53;;;;;;;3.00;1.23;;;7.30;99.90;;;;;;5032824;28;20168;-75
2021/05/05 01:06:18;;;;;;;1.80;1.10;;;7.20;99.90;;;;;;5032817;28;20185;-75
2021/05/05 01:08:47;;;;;;;1.30;1.20;;;7.30;99.90;;;;;;5033038;28;20196;-75
2021/05/05 01:11:14;;;;;;;1.73;1.17;;;7.30;99.90;;;;;;5048131;28;20173;-75
2021/05/05 01:13:42;;;;;;;2.00;1.00;;;7.10;99.90;;;;;;5032603;28;20885;-76
2021/05/05 01:16:07;;;;;;;3.00;1.80;;;7.20;99.90;;;;;;5033182;28;20473;-75
2021/05/05 01:18:33;;;;;;;4.10;1.30;;;7.30;99.90;;;;;;5036409;28;20411;-76
2021/05/05 01:20:59;;;;;;;1.20;1.00;;;7.20;99.90;;;;;;5035155;28;20512;-75
2021/05/05 01:23:25;;;;;;;2.60;1.40;;;7.10;99.90;;;;;;5036325;28;20173;-76
2021/05/05 01:25:51;;;;;;;2.90;1.50;;;7.30;99.90;;;;;;5036205;28;20902;-76
2021/05/05 01:28:17;;;;;;;2.20;1.40;;;7.20;99.90;;;;;;5036238;28;20422;-75
2021/05/05 01:30:44;;;;;;;1.20;1.03;;;7.20;99.90;;;;;;5051531;28;20184;-75
2021/05/05 01:33:10;;;;;;;7.07;1.43;;;7.30;99.90;;;;;;5036394;28;20350;-75
2021/05/05 01:35:35;;;;;;;1.47;1.37;;;7.20;99.90;;;;;;5036128;28;20415;-75
2021/05/05 01:38:01;;;;;;;1.50;1.20;;;7.20;99.90;;;;;;5051488;28;20172;-75
2021/05/05 01:40:32;;;;;;;1.73;1.50;;;7.20;99.90;;;;;;5036120;28;20559;-76
2021/05/05 01:42:59;;;;;;;1.83;1.33;;;7.20;99.90;;;;;;5036354;28;20180;-76
2021/05/05 01:45:25;;;;;;;4.43;1.30;;;7.10;99.90;;;;;;5036316;28;20422;-76
2021/05/05 01:48:00;;;;;;;1.93;1.40;;;7.20;99.90;;;;;;5034673;28;20930;-75
2021/05/05 01:50:26;;;;;;;3.73;0.90;;;7.20;99.90;;;;;;5051197;28;20227;-75
2021/05/05 01:52:52;;;;;;;2.50;1.10;;;7.20;99.90;;;;;;5036093;28;20915;-76
2021/05/05 01:55:18;;;;;;;1.70;1.20;;;7.20;99.90;;;;;;5034487;28;20184;-76
2021/05/05 01:57:45;;;;;;;1.50;1.23;;;7.20;99.90;;;;;;5035774;28;20436;-75
2021/05/05 02:00:17;;;;;;;1.77;1.20;;;7.20;99.90;;;;;;5035753;28;20506;-76
2021/05/05 02:02:43;;;;;;;2.23;1.37;;;7.30;99.90;;;;;;5036021;28;20430;-75
2021/05/05 02:05:09;;;;;;;2.70;1.40;;;7.30;99.90;;;;;;5035770;28;20444;-75
2021/05/05 02:07:35;;;;;;;1.40;1.30;;;7.30;99.90;;;;;;5035611;28;20419;-75
2021/05/05 02:10:03;;;;;;;1.03;1.03;;;7.30;99.90;;;;;;5035397;28;20475;-75
2021/05/05 02:12:32;;;;;;;1.23;1.20;;;7.30;99.90;;;;;;5050601;28;20185;-75
2021/05/05 02:14:58;;;;;;;2.60;1.37;;;7.30;99.90;;;;;;5035757;28;20423;-75
2021/05/05 02:17:24;;;;;;;2.20;1.40;;;7.30;99.90;;;;;;5035357;28;20783;-75
2021/05/05 02:19:49;;;;;;;2.93;1.53;;;7.20;99.90;;;;;;5035280;28;20188;-74
2021/05/05 02:22:15;;;;;;;2.80;1.40;;;7.20;99.90;;;;;;5034031;28;20180;-75
2021/05/05 02:24:41;;;;;;;2.73;0.97;;;7.20;99.90;;;;;;5035234;28;20185;-75
2021/05/05 02:30:28;;;;;;;2.87;1.60;;;7.20;99.90;;;;;;5035408;28;20267;-75
2021/05/05 02:32:54;;;;;;;2.70;2.03;;;7.20;99.90;;;;;;5050632;28;20427;-75
2021/05/05 02:35:20;;;;;;;1.30;1.07;;;7.20;99.90;;;;;;5035428;28;20237;-75
2021/05/05 02:37:47;;;;;;;2.30;1.00;;;7.20;99.90;;;;;;5035190;28;20275;-74
2021/05/05 02:40:14;;;;;;;2.97;1.07;;;7.20;99.90;;;;;;5035077;28;20430;-74
2021/05/05 02:42:40;;;;;;;0.97;0.90;;;7.10;99.90;;;;;;5035263;28;20450;-74
2021/05/05 02:45:07;;;;;;;1.73;1.00;;;7.10;99.90;;;;;;5035115;28;20443;-74
2021/05/05 02:47:32;;;;;;;1.27;1.00;;;7.10;99.90;;;;;;5035167;28;20418;-74
2021/05/05 02:49:58;;;;;;;2.27;1.30;;;7.10;99.90;;;;;;5034778;28;20467;-74
2021/05/05 02:52:23;;;;;;;1.67;1.13;;;7.20;99.90;;;;;;5034712;28;20173;-74
2021/05/05 02:54:49;;;;;;;1.43;1.33;;;7.20;99.90;;;;;;5050124;28;20172;-74
2021/05/05 02:57:14;;;;;;;1.37;1.30;;;7.20;99.90;;;;;;5034652;28;20169;-74
2021/05/05 02:59:40;;;;;;;1.50;1.20;;;7.20;99.90;;;;;;5034573;28;20168;-74
2021/05/05 03:02:06;;;;;;;1.80;1.20;;;7.10;99.90;;;;;;5033318;28;20176;-74
2021/05/05 03:04:31;;;;;;;3.33;0.90;;;7.20;99.90;;;;;;5033251;28;20177;-74
2021/05/05 03:06:57;;;;;;;1.10;1.00;;;7.20;99.90;;;;;;5034723;28;20415;-73
2021/05/05 03:09:26;;;;;;;2.20;1.13;;;7.20;99.90;;;;;;5034256;28;20671;-74
2021/05/05 03:11:56;;;;;;;3.50;1.63;;;7.20;99.90;;;;;;5034665;28;20176;-74
2021/05/05 03:14:27;;;;;;;1.27;0.77;;;7.20;99.90;;;;;;5034142;28;20444;-74
2021/05/05 03:16:57;;;;;;;1.23;0.93;;;7.20;99.90;;;;;;5049825;28;20788;-74
2021/05/05 03:19:23;;;;;;;1.33;1.00;;;7.20;99.90;;;;;;5034176;28;20450;-74
2021/05/05 03:21:49;;;;;;;2.27;1.37;;;7.20;99.90;;;;;;5034132;28;20911;-74
2021/05/05 03:24:15;;;;;;;4.30;1.17;;;7.10;99.90;;;;;;5034894;28;20412;-74
2021/05/05 03:26:41;;;;;;;1.60;1.50;;;7.20;99.90;;;;;;5034340;28;20929;-74
2021/05/05 03:29:07;;;;;;;0.70;0.50;;;7.10;99.90;;;;;;5033031;28;20634;-74
2021/05/05 03:31:33;;;;;;;1.97;1.87;;;7.10;99.90;;;;;;5032773;28;20169;-74
2021/05/05 03:33:59;;;;;;;2.60;1.60;;;7.10;99.90;;;;;;5034269;28;20180;-76
2021/05/05 03:36:25;;;;;;;2.97;1.40;;;7.20;99.90;;;;;;5034108;28;20462;-74
2021/05/05 03:38:50;;;;;;;1.10;1.00;;;7.20;99.90;;;;;;5033925;28;20763;-74
2021/05/05 03:41:16;;;;;;;0.57;0.57;;;7.10;99.90;;;;;;5032632;28;20181;-74
2021/05/05 03:43:42;;;;;;;2.80;0.97;;;7.10;99.90;;;;;;5034205;28;20176;-74
2021/05/05 03:46:08;;;;;;;0.80;0.80;;;7.00;99.90;;;;;;5051181;28;20177;-75
2021/05/05 03:48:34;;;;;;;1.30;1.10;;;6.90;99.90;;;;;;5034280;28;20490;-74
2021/05/05 03:51:02;;;;;;;0.70;0.70;;;7.00;99.90;;;;;;5032784;28;20188;-75
2021/05/05 03:53:28;;;;;;;2.70;1.40;;;7.00;99.90;;;;;;5049408;28;20431;-73
2021/05/05 03:55:53;;;;;;;2.30;2.10;;;6.90;99.90;;;;;;5033756;28;20423;-73
2021/05/05 03:58:19;;;;;;;2.30;1.40;;;7.00;99.90;;;;;;5032457;28;20180;-75
2021/05/05 04:00:44;;;;;;;1.60;1.50;;;7.00;99.90;;;;;;5033615;28;20255;-75
2021/05/05 04:03:10;;;;;;;2.07;1.67;;;6.90;99.90;;;;;;5049040;28;20267;-74
2021/05/05 04:05:36;;;;;;;2.67;2.20;;;6.90;99.90;;;;;;5034405;28;20200;-74
2021/05/05 04:08:02;;;;;;;1.50;1.40;;;6.90;99.90;;;;;;5034804;28;20176;-74
2021/05/05 04:10:27;;;;;;;2.60;1.90;;;6.90;99.90;;;;;;5033115;28;20288;-75
2021/05/05 04:12:53;;;;;;;1.90;1.80;;;7.00;99.90;;;;;;5032316;28;20467;-74
2021/05/05 04:15:19;;;;;;;2.27;2.07;;;7.00;99.90;;;;;;5033636;28;20627;-74
2021/05/05 04:17:44;;;;;;;3.53;2.20;;;7.10;99.90;;;;;;5048482;28;20180;-74
2021/05/05 04:20:11;;;;;;;1.50;1.40;;;7.00;99.90;;;;;;5033868;28;20442;-73
2021/05/05 04:22:37;;;;;;;3.20;1.60;;;7.00;99.90;;;;;;5033281;28;20691;-75
2021/05/05 04:25:03;;;;;;;1.90;1.50;;;7.00;99.90;;;;;;5032987;28;20427;-74
2021/05/05 04:27:29;;;;;;;2.00;1.23;;;7.00;99.90;;;;;;5033166;28;20426;-76
2021/05/05 04:29:55;;;;;;;2.20;1.87;;;7.10;99.90;;;;;;5033038;28;20462;-75
2021/05/05 04:32:22;;;;;;;5.00;3.47;;;7.10;99.90;;;;;;5033512;28;20226;-75
2021/05/05 04:34:47;;;;;;;1.50;1.40;;;7.20;99.90;;;;;;5033210;28;20173;-74
2021/05/05 04:37:13;;;;;;;1.67;1.33;;;7.10;99.90;;;;;;5033065;28;20481;-74
2021/05/05 04:39:38;;;;;;;1.60;1.60;;;7.10;99.90;;;;;;5033045;28;20179;-75
2021/05/05 04:42:07;;;;;;;4.00;2.40;;;7.10;99.90;;;;;;5032885;28;20513;-75
2021/05/05 04:44:33;;;;;;;1.63;1.53;;;7.20;99.90;;;;;;5032784;28;20173;-74
2021/05/05 04:46:59;;;;;;;2.20;1.87;;;7.20;99.90;;;;;;5031678;28;20435;-75
2021/05/05 04:49:24;;;;;;;3.43;1.70;;;7.20;99.90;;;;;;5048121;28;20517;-75
2021/05/05 04:51:50;;;;;;;2.77;2.67;;;7.30;99.90;;;;;;5034595;28;20234;-75
2021/05/05 04:54:15;;;;;;;2.43;1.70;;;7.40;99.90;;;;;;5052739;28;20231;-75
2021/05/05 04:56:41;;;;;;;1.70;1.40;;;7.30;99.90;;;;;;5037601;28;20244;-76
2021/05/05 04:59:07;;;;;;;3.20;2.90;;;7.20;99.90;;;;;;5035796;28;20176;-75
2021/05/05 05:01:32;;;;;;;2.27;1.87;;;7.20;99.90;;;;;;5036989;28;20263;-75
2021/05/05 05:03:58;;;;;;;2.03;1.77;;;7.30;99.90;;;;;;5052408;28;20632;-75
2021/05/05 05:06:23;;;;;;;1.73;1.30;;;7.30;99.90;;;;;;5036778;28;20181;-76
2021/05/05 05:08:49;;;;;;;1.60;1.50;;;7.30;99.90;;;;;;5036831;28;20212;-75
2021/05/05 05:11:15;;;;;;;3.27;2.07;;;7.20;99.90;;;;;;5034998;28;20180;-74
2021/05/05 05:13:41;;;;;;;2.67;1.70;;;7.30;99.90;;;;;;5036284;28;20311;-74
2021/05/05 05:16:07;;;;;;;1.20;1.10;;;7.30;99.90;;;;;;5035432;28;20779;-74
2021/05/05 05:18:33;;;;;;;6.10;1.73;;;7.30;99.90;;;;;;5036386;28;20418;-75
2021/05/05 05:21:00;;;;;;;0.60;0.60;;;7.30;99.90;;;;;;5035312;28;20185;-75
2021/05/05 05:23:26;;;;;;;2.37;1.07;;;7.20;99.90;;;;;;5036808;28;20419;-75
2021/05/05 05:25:52;;;;;;;1.20;1.10;;;7.10;99.90;;;;;;5036689;28;20427;-75
2021/05/05 05:28:17;;;;;;;2.13;0.90;;;7.30;99.90;;;;;;5036107;28;20203;-75
2021/05/05 05:30:43;;;;;;;3.00;1.40;;;7.30;99.90;;;;;;5036171;28;20243;-75
2021/05/05 05:33:09;;;;;;;2.87;2.00;;;7.30;99.90;;;;;;5036574;28;20251;-74
2021/05/05 05:35:34;;;;;;;1.70;1.30;;;7.30;99.90;;;;;;5036163;28;20169;-74
2021/05/05 05:38:00;;;;;;;4.27;1.80;;;7.50;99.90;;;;;;5051122;28;20216;-76
2021/05/05 05:40:25;;;;;;;2.70;2.10;;;7.60;99.90;;;;;;5036214;28;20223;-77
2021/05/05 05:42:51;;;;;;;1.97;1.83;;;7.70;99.90;;;;;;5035975;28;20173;-76
2021/05/05 05:45:18;;;;;;;7.07;2.17;;;7.70;99.90;;;;;;5034370;28;20319;-77
2021/05/05 05:47:45;;;;;;;1.77;1.67;;;7.60;99.90;;;;;;5034249;28;20172;-73
2021/05/05 05:50:12;;;;;;;5.77;5.17;;;7.70;99.90;;;;;;5050702;28;20549;-74
2021/05/05 05:52:38;;;;;;;2.53;1.70;;;7.70;99.90;;;;;;5036156;28;20878;-76
2021/05/05 05:55:07;;;;;;;1.40;1.30;;;7.70;99.90;;;;;;5051932;28;20446;-74
2021/05/05 05:57:32;;;;;;;3.97;1.53;;;7.60;99.90;;;;;;5034284;28;20180;-73
2021/05/05 05:59:59;;;;;;;2.33;2.10;;;7.60;99.90;;;;;;5035654;28;20867;-76
2021/05/05 06:02:26;;;;;;;1.50;1.40;;;7.60;99.90;;;;;;5033575;28;20169;-76
2021/05/05 06:04:51;;;;;;;5.57;3.80;;;7.70;99.90;;;;;;5033568;28;20818;-77
2021/05/05 06:07:18;;;;;;;1.93;1.73;;;7.60;99.90;;;;;;5035505;28;20460;-76
2021/05/05 06:09:44;;;;;;;2.33;2.13;;;7.50;99.90;;;;;;5035285;28;20292;-76
2021/05/05 06:12:10;;;;;;;2.30;2.10;;;7.60;99.90;;;;;;5035872;28;20813;-76
2021/05/05 06:14:36;;;;;;;1.60;1.40;;;8.40;99.90;;;;;;5035464;28;20224;-76
2021/05/05 06:17:03;;;;;;;3.27;3.00;;;8.90;99.90;;;;;;5035844;28;20411;-73
2021/05/05 06:19:29;;;;;;;4.00;2.80;;;9.40;99.90;;;;;;5036116;28;20579;-76
2021/05/05 06:21:54;;;;;;;2.40;1.33;;;9.60;99.90;;;;;;5035820;28;20476;-76
2021/05/05 06:24:20;;;;;;;2.17;1.30;;;9.50;99.90;;;;;;5035437;28;20203;-76
2021/05/05 06:26:45;;;;;;;5.70;1.50;;;9.10;99.90;;;;;;5035581;28;20173;-77
2021/05/05 06:29:11;;;;;;;4.53;2.03;;;8.90;99.90;;;;;;5033776;28;20362;-75
2021/05/05 06:31:37;;;;;;;3.00;2.80;;;9.00;99.90;;;;;;5050342;28;20251;-76
2021/05/05 06:34:04;;;;;;;3.13;2.93;;;8.80;99.90;;;;;;5035087;28;20741;-76
2021/05/05 06:36:29;;;;;;;4.87;2.33;;;8.70;99.90;;;;;;5034947;28;20411;-73
2021/05/05 06:38:55;;;;;;;3.00;1.50;;;8.50;99.90;;;;;;5036233;28;20419;-75
2021/05/05 06:41:20;;;;;;;2.30;2.10;;;8.40;99.90;;;;;;5033514;28;20183;-76
2021/05/05 06:43:46;;;;;;;2.70;2.33;;;8.20;99.90;;;;;;5034940;28;20196;-76
2021/05/05 06:46:12;;;;;;;6.53;2.83;;;8.20;99.90;;;;;;5034896;28;20509;-75
2021/05/05 06:48:37;;;;;;;3.77;1.70;;;8.90;99.90;;;;;;5034137;28;20238;-76
2021/05/05 06:51:03;;;;;;;2.30;2.03;;;9.90;99.90;;;;;;5034823;28;20455;-76
2021/05/05 06:53:29;;;;;;;5.03;2.40;;;10.30;99.90;;;;;;5049871;28;20176;-75
2021/05/05 06:55:55;;;;;;;2.73;1.20;;;10.70;99.90;;;;;;5034979;28;20562;-76
2021/05/05 06:58:20;;;;;;;1.97;1.73;;;10.10;99.90;;;;;;5034198;28;20621;-76
2021/05/05 07:00:46;;;;;;;2.50;1.87;;;9.40;99.90;;;;;;5034486;28;20599;-76
2021/05/05 07:03:12;;;;;;;1.67;1.57;;;9.60;99.90;;;;;;5539585;22;20297;-74
2021/05/05 07:05:37;;;;;;;3.33;1.50;;;9.70;99.90;;;;;;5032560;28;20473;-75
2021/05/05 07:08:03;;;;;;;1.90;1.80;;;9.10;99.90;;;;;;5033068;28;20181;-75
2021/05/05 07:10:29;;;;;;;2.80;2.20;;;8.70;99.90;;;;;;5031237;28;20266;-74
2021/05/05 07:12:54;;;;;;;4.33;2.20;;;9.10;99.90;;;;;;5033866;28;20536;-74
2021/05/05 07:15:20;;;;;;;2.03;1.90;;;9.10;99.90;;;;;;5031981;28;20528;-74
2021/05/05 07:17:52;;;;;;;4.83;1.80;;;10.00;99.90;;;;;;5033664;28;20230;-79
2021/05/05 07:20:18;;;;;;;1.80;1.27;;;10.50;90.90;;;;;;5030798;28;20173;-75
2021/05/05 07:22:43;;;;;;;3.70;2.70;;;10.70;22.40;;;;;;5032700;28;20802;-74
2021/05/05 07:25:10;;;;;;;5.53;2.33;;;10.70;1.00;;;;;;5032725;28;20184;-75
2021/05/05 07:27:35;;;;;;;1.80;1.40;;;11.00;1.00;;;;;;5032652;28;20176;-76
2021/05/05 07:30:01;;;;;;;3.00;1.80;;;11.00;99.90;;;;;;5032471;28;20463;-77
2021/05/05 07:32:27;;;;;;;1.87;1.33;;;11.10;1.00;;;;;;5032298;28;20183;-76
2021/05/05 07:34:53;;;;;;;3.37;1.63;;;11.40;1.00;;;;;;5032475;28;20173;-76
2021/05/05 07:37:37;;;;;;;0.93;0.93;;;11.50;27.00;;;;;;5032556;28;20598;-76
2021/05/05 07:48:41;;;;;;;3.37;1.50;;;11.40;1.00;;;;;;5031628;28;20979;-76
2021/05/05 07:50:46;;;;;;;5.33;1.80;;;10.60;1.00;;;;;;5028337;28;20462;-74
2021/05/05 07:53:11;;;;;;;1.57;1.20;;;9.90;1.00;;;;;;5046709;28;20768;-74
2021/05/05 07:55:37;;;;;;;1.00;0.90;;;10.40;98.90;;;;;;5046206;28;20579;-74
2021/05/05 07:58:02;;;;;;;2.20;1.30;;;11.60;1.00;;;;;;5031253;28;20200;-74
2021/05/05 08:00:30;;;;;;;3.17;1.30;;;12.30;99.90;;;;;;5031750;28;20525;-75
2021/05/05 08:02:55;;;;;;;2.87;2.57;;;11.60;99.90;;;;;;5031780;28;20220;-74
2021/05/05 08:05:24;;;;;;;1.53;1.43;;;11.90;99.90;;;;;;5033233;28;20418;-77
2021/05/05 08:07:53;;;;;;;3.00;1.50;;;12.10;99.90;;;;;;5030332;28;20183;-76
2021/05/05 08:10:19;;;;;;;2.87;2.67;;;11.90;13.30;;;;;;5031177;28;20478;-75
2021/05/05 08:12:44;;;;;;;4.17;1.93;;;12.50;1.00;;;;;;5030705;28;20445;-76
2021/05/05 08:15:11;;;;;;;2.60;1.53;;;12.30;46.10;;;;;;5032234;28;20215;-76
2021/05/05 08:17:39;;;;;;;2.57;1.40;;;13.10;1.00;;;;;;5047351;28;20184;-76
2021/05/05 08:20:06;;;;;;;3.93;1.73;;;12.20;1.00;;;;;;5030674;28;20431;-74
2021/05/05 08:22:32;;;;;;;4.00;1.40;;;12.10;1.00;;;;;;5032051;28;20965;-75
2021/05/05 08:24:58;;;;;;;2.90;1.40;;;12.80;1.00;;;;;;5033065;28;20438;-75
2021/05/05 08:27:24;;;;;;;2.43;1.53;;;13.00;1.00;;;;;;5032274;28;20506;-77
2021/05/05 08:29:52;;;;;;;3.30;1.70;;;13.40;1.00;;;;;;5032215;28;20989;-76
2021/05/05 08:32:17;;;;;;;4.90;2.13;;;13.90;99.90;;;;;;5031739;28;20164;-76
2021/05/05 08:34:43;;;;;;;7.53;2.33;;;14.50;99.90;;;;;;5032205;28;20464;-76
2021/05/05 08:37:08;;;;;;;2.50;1.47;;;13.90;99.90;;;;;;5030083;28;20271;-76
2021/05/05 08:39:34;;;;;;;2.57;1.60;;;13.40;99.90;;;;;;5031529;28;20192;-76
2021/05/05 08:41:59;;;;;;;2.43;1.77;;;11.60;1.00;;;;;;5046639;28;20629;-75
2021/05/05 08:44:25;;;;;;;1.80;0.70;;;10.60;99.90;;;;;;5031074;28;20184;-75
2021/05/05 08:46:52;;;;;;;7.20;2.00;;;9.80;1.00;;;;;;5031465;28;20214;-74
2021/05/05 08:49:18;;;;;;;1.30;0.83;;;10.10;19.20;;;;;;5031263;28;20466;-75
2021/05/05 08:51:45;;;;;;;3.20;1.23;;;11.40;78.50;;;;;;5030209;28;20427;-76
2021/05/05 08:54:11;;;;;;;1.00;0.90;;;12.00;99.90;;;;;;5030795;28;20188;-75
2021/05/05 08:56:38;;;;;;;8.60;2.20;;;12.00;32.30;;;;;;5032033;28;20431;-76
2021/05/05 08:59:05;;;;;;;9.97;2.07;;;13.20;1.00;;;;;;5031592;28;20180;-75
2021/05/05 09:01:32;;;;;;;3.03;1.20;;;13.10;1.00;;;;;;5031458;28;20431;-75
2021/05/05 09:03:58;;;;;;;1.77;1.30;;;12.80;1.00;;;;;;5030836;28;20467;-76
2021/05/05 09:06:44;;;;;;;2.60;1.50;;;11.90;1.00;;;;;;5031463;28;20430;-75
2021/05/05 09:09:11;;;;;;;1.87;1.60;;;11.70;1.00;;;;;;5031118;28;20467;-76
2021/05/05 09:11:46;;;;;;;1.53;1.43;;;12.30;1.00;;;;;;5031320;28;20446;-75
2021/05/05 09:14:12;;;;;;;2.97;1.03;;;12.50;99.90;;;;;;5031101;28;20514;-76
2021/05/05 09:16:38;;;;;;;3.97;2.23;;;13.10;99.90;;;;;;5029729;28;21008;-76
2021/05/05 09:19:06;;;;;;;4.50;1.90;;;12.20;1.00;;;;;;5046353;28;20183;-75
2021/05/05 09:21:43;;;;;;;2.37;1.57;;;12.70;1.00;;;;;;5029954;28;20442;-74
2021/05/05 09:24:30;;;;;;;3.70;1.17;;;11.70;1.00;;;;;;5024450;28;20424;-75
2021/05/05 09:27:07;;;;;;;1.00;0.87;;;11.70;99.90;;;;;;5030366;28;20445;-75
2021/05/05 09:29:47;;;;;;;2.80;1.50;;;13.20;99.90;;;;;;5030915;28;20470;-75
2021/05/05 09:32:15;;;;;;;1.10;1.00;;;12.30;99.90;;;;;;5031197;28;20494;-75
2021/05/05 09:34:41;;;;;;;2.23;1.27;;;12.80;99.90;;;;;;5031178;28;20433;-76
2021/05/05 09:37:10;;;;;;;41.37;7.53;;;13.40;99.90;;;;;;5031421;28;20938;-75
2021/05/05 09:39:39;;;;;;;2.00;1.23;;;13.30;99.90;;;;;;5033158;28;20488;-75
2021/05/05 09:42:25;;;;;;;2.70;1.20;;;14.40;99.90;;;;;;5034930;28;20422;-76
2021/05/05 09:44:59;;;;;;;1.13;1.03;;;12.80;99.90;;;;;;5033228;28;20775;-75
2021/05/05 09:47:54;;;;;;;3.67;1.40;;;12.00;99.90;;;;;;5026304;28;20424;-74
2021/05/05 09:50:25;;;;;;;5.70;2.13;;;12.50;99.90;;;;;;5029850;28;20978;-75
2021/05/05 09:52:51;;;;;;;5.00;1.80;;;12.30;99.90;;;;;;5030776;28;20450;-75
2021/05/05 09:55:19;;;;;;;7.20;2.37;;;12.50;99.90;;;;;;5032604;28;20811;-73
2021/05/05 09:57:44;;;;;;;1.53;1.37;;;13.40;99.90;;;;;;5032244;28;20655;-75
2021/05/05 10:00:17;;;;;;;3.43;1.53;;;14.20;99.90;;;;;;5033021;28;20415;-75
2021/05/05 10:02:47;;;;;;;3.50;1.33;;;15.00;99.90;;;;;;5032453;28;20220;-75
2021/05/05 10:05:14;;;;;;;1.97;1.63;;;15.00;99.90;;;;;;5033091;28;20526;-74
2021/05/05 10:07:51;;;;;;;3.53;1.30;;;14.70;99.90;;;;;;5032412;28;20498;-75
2021/05/05 10:10:19;;;;;;;11.57;0.90;;;14.40;99.90;;;;;;5033279;28;20965;-75
2021/05/05 10:12:44;;;;;;;3.13;1.37;;;14.50;99.90;;;;;;5032324;28;20968;-74
2021/05/05 10:15:11;;;;;;;2.33;1.40;;;12.80;99.90;;;;;;5032752;28;20424;-75
2021/05/05 10:17:38;;;;;;;4.77;1.30;;;13.30;99.90;;;;;;5031142;28;20230;-75
2021/05/05 10:20:04;;;;;;;0.80;0.80;;;12.70;99.90;;;;;;5032596;28;20428;-75
2021/05/05 10:22:31;;;;;;;2.93;1.60;;;13.80;99.90;;;;;;5031063;28;20427;-73
2021/05/05 10:24:58;;;;;;;4.00;1.37;;;13.70;99.90;;;;;;5033063;28;20451;-75
2021/05/05 10:27:24;;;;;;;2.03;1.70;;;13.10;99.90;;;;;;5031621;28;20459;-74
2021/05/05 10:29:51;;;;;;;1.63;1.17;;;12.60;99.90;;;;;;5032830;28;20479;-74
2021/05/05 10:32:21;;;;;;;8.03;2.03;;;12.50;99.90;;;;;;5032659;28;20430;-75
2021/05/05 10:34:50;;;;;;;3.50;0.80;;;11.40;99.90;;;;;;5031096;28;20427;-72
2021/05/05 10:37:15;;;;;;;2.27;0.53;;;9.60;1.00;;;;;;5032694;28;20486;-73
2021/05/05 10:39:42;;;;;;;0.87;0.70;;;7.20;99.90;;;;;;5032451;28;20514;-74
2021/05/05 10:42:15;;;;;;;0.50;0.50;;;6.30;99.90;;;;;;5031148;28;20183;-75
2021/05/05 10:44:48;;;;;;;0.90;0.73;;;5.70;99.90;;;;;;5032155;28;20418;-73
2021/05/05 10:47:21;;;;;;;0.80;0.70;;;5.60;99.90;;;;;;5030500;28;20486;-73
2021/05/05 10:49:59;;;;;;;0.40;0.40;;;5.50;99.90;;;;;;5031411;28;20520;-76
2021/05/05 10:52:45;;;;;;;0.40;0.40;;;5.00;99.90;;;;;;5031120;28;20416;-74
2021/05/05 10:55:18;;;;;;;5.47;5.17;;;4.90;99.90;;;;;;5025237;28;20462;-76
2021/05/05 10:58:08;;;;;;;1.13;0.50;;;5.10;99.90;;;;;;5032393;28;20637;-74
2021/05/05 11:00:49;;;;;;;0.60;0.50;;;5.10;99.90;;;;;;5032714;28;20418;-75
2021/05/05 11:03:16;;;;;;;1.00;1.00;;;5.60;99.90;;;;;;5032428;28;20471;-74
2021/05/05 11:05:44;;;;;;;0.83;0.83;;;5.70;99.90;;;;;;5031307;28;20418;-75
2021/05/05 11:08:27;;;;;;;2.00;1.27;;;5.90;99.90;;;;;;5032223;28;20424;-74
2021/05/05 11:10:59;;;;;;;1.40;1.10;;;6.20;99.90;;;;;;5032492;28;20423;-77
2021/05/05 11:13:24;;;;;;;1.23;1.13;;;6.60;99.90;;;;;;5032308;28;20478;-74
2021/05/05 11:15:50;;;;;;;0.83;0.83;;;6.60;99.90;;;;;;5032127;28;20408;-74
2021/05/05 11:18:34;;;;;;;0.70;0.60;;;6.70;99.90;;;;;;5032437;28;20579;-76
2021/05/05 11:21:33;;;;;;;3.27;2.07;;;7.30;99.90;;;;;;5032163;28;20187;-74
2021/05/05 11:23:59;;;;;;;0.90;0.90;;;8.00;99.90;;;;;;5032090;28;20435;-74
2021/05/05 11:26:31;;;;;;;8.17;0.90;;;8.10;99.90;;;;;;5031557;28;20427;-75
2021/05/05 11:29:10;;;;;;;1.90;0.97;;;8.40;99.90;;;;;;5030764;28;20557;-75
2021/05/05 11:31:45;;;;;;;0.90;0.90;;;8.50;99.90;;;;;;5031116;28;20545;-75
2021/05/05 11:34:33;;;;;;;0.97;0.90;;;8.90;99.90;;;;;;5030566;28;20423;-74
2021/05/05 11:36:59;;;;;;;1.23;0.97;;;9.20;99.90;;;;;;5030634;28;20438;-74
2021/05/05 11:39:38;;;;;;;1.43;1.00;;;9.30;99.90;;;;;;5031109;28;20420;-75
2021/05/05 11:42:09;;;;;;;3.43;1.67;;;9.60;99.90;;;;;;5031714;28;20172;-75
2021/05/05 11:44:46;;;;;;;2.70;0.83;;;9.60;99.90;;;;;;5030167;28;20438;-74
2021/05/05 11:47:17;;;;;;;2.40;0.97;;;9.70;99.90;;;;;;5031595;28;20430;-75
2021/05/05 11:49:48;;;;;;;2.10;1.73;;;9.70;99.90;;;;;;5029951;28;20565;-74
2021/05/05 11:52:31;;;;;;;4.70;2.80;;;9.90;99.90;;;;;;5030075;28;20415;-74
2021/05/05 11:55:01;;;;;;;1.60;1.50;;;10.60;99.90;;;;;;5029500;28;20459;-74
2021/05/05 11:57:30;;;;;;;2.70;1.70;;;10.80;11.50;;;;;;5030079;28;20799;-74
2021/05/05 12:00:09;;;;;;;1.20;1.07;;;10.60;1.00;;;;;;5029762;28;21172;-74
2021/05/05 12:02:46;;;;;;;1.53;1.23;;;10.30;99.90;;;;;;5029699;28;20518;-74
2021/05/05 12:05:28;;;;;;;6.67;1.20;;;10.70;1.00;;;;;;5030228;28;20427;-74
2021/05/05 12:08:15;;;;;;;2.20;2.00;;;10.70;99.90;;;;;;5029627;28;20431;-73
2021/05/05 12:10:44;;;;;;;1.03;0.93;;;10.70;99.90;;;;;;5029888;28;20993;-75
2021/05/05 12:13:17;;;;;;;2.80;1.90;;;10.90;82.60;;;;;;5029749;28;20423;-74
2021/05/05 12:15:57;;;;;;;2.57;1.13;;;10.80;99.90;;;;;;5028835;28;20423;-74
2021/05/05 12:18:35;;;;;;;2.60;1.17;;;10.70;91.40;;;;;;5029175;28;20422;-74
2021/05/05 12:21:07;;;;;;;5.40;1.20;;;10.90;1.00;;;;;;5029278;28;20477;-74
2021/05/05 12:23:47;;;;;;;3.43;1.33;;;11.00;99.90;;;;;;5031031;28;20408;-76
2021/05/05 12:26:13;;;;;;;1.83;1.20;;;11.10;99.90;;;;;;5030701;28;20421;-76
2021/05/05 12:28:39;;;;;;;2.47;1.40;;;10.40;75.20;;;;;;5030797;28;20739;-74
2021/05/05 12:31:04;;;;;;;2.20;1.10;;;10.10;1.00;;;;;;5031117;28;20423;-75
2021/05/05 12:33:30;;;;;;;4.13;1.97;;;10.30;1.00;;;;;;5031466;28;20165;-74
2021/05/05 12:35:56;;;;;;;0.80;0.80;;;10.10;61.50;;;;;;5029769;28;20172;-75
2021/05/05 12:38:22;;;;;;;2.30;0.70;;;10.00;1.00;;;;;;5029833;28;20184;-75
2021/05/05 12:40:48;;;;;;;0.83;0.83;;;10.00;99.90;;;;;;5030187;28;20428;-75
2021/05/05 12:43:32;;;;;;;6.90;1.50;;;10.00;1.00;;;;;;5028370;28;20823;-74
2021/05/05 12:45:59;;;;;;;0.73;0.73;;;10.40;99.90;;;;;;5030551;28;20430;-74
2021/05/05 12:48:45;;;;;;;1.93;1.10;;;10.30;99.90;;;;;;5028957;28;20422;-75
2021/05/05 12:51:20;;;;;;;0.43;0.37;;;10.50;99.90;;;;;;5027264;28;20517;-75
2021/05/05 12:53:58;;;;;;;1.83;0.60;;;10.50;1.00;;;;;;5031069;28;20505;-75
2021/05/05 12:56:44;;;;;;;1.43;1.03;;;10.10;1.00;;;;;;5029482;28;20419;-76
2021/05/05 12:59:17;;;;;;;1.30;1.20;;;10.20;1.00;;;;;;5030780;28;20415;-76
2021/05/05 13:01:43;;;;;;;0.95;0.80;;;9.40;1.00;;;;;;5029044;28;20406;-75
2021/05/05 13:04:09;;;;;;;0.90;0.90;;;8.90;99.90;;;;;;5030692;28;20290;-75
2021/05/05 13:06:46;;;;;;;1.50;1.40;;;9.40;1.00;;;;;;5030897;28;20531;-75
2021/05/05 13:09:20;;;;;;;1.27;0.77;;;9.60;1.00;;;;;;5031119;28;20215;-75
2021/05/05 13:11:49;;;;;;;2.63;2.20;;;9.80;33.10;;;;;;5028951;28;20423;-74